sensor_id;sensor_type;location;lat;lon;timestamp;P1;durP1;ratioP1;P2;durP2;ratioP2
44862;SDS011;30597;49.628;10.850;2023-03-20T00:00:53;4.33;;;3.93;;
44862;SDS011;30597;49.628;10.850;2023-03-20T00:03:19;5.03;;;4.57;;
44862;SDS011;30597;49.628;10.850;2023-03-20T00:05:45;4.03;;;3.70;;
44862;SDS011;30597;49.628;10.850;2023-03-20T00:08:10;4.30;;;3.90;;
44862;SDS011;30597;49.628;10.850;2023-03-20T00:10:40;4.00;;;3.67;;
44862;SDS011;30597;49.628;10.850;2023-03-20T00:13:09;4.73;;;4.30;;
44862;SDS011;30597;49.628;10.850;2023-03-20T00:15:40;3.97;;;3.67;;
44862;SDS011;30597;49.628;10.850;2023-03-20T00:18:17;3.97;;;3.60;;
44862;SDS011;30597;49.628;10.850;2023-03-20T00:20:46;4.37;;;4.03;;
44862;SDS011;30597;49.628;10.850;2023-03-20T00:23:16;4.50;;;4.10;;
44862;SDS011;30597;49.628;10.850;2023-03-20T00:25:42;4.83;;;4.10;;
44862;SDS011;30597;49.628;10.850;2023-03-20T00:28:27;4.27;;;3.87;;
44862;SDS011;30597;49.628;10.850;2023-03-20T00:31:01;4.40;;;4.00;;
44862;SDS011;30597;49.628;10.850;2023-03-20T00:33:27;3.67;;;3.37;;
44862;SDS011;30597;49.628;10.850;2023-03-20T00:35:55;4.13;;;3.73;;
44862;SDS011;30597;49.628;10.850;2023-03-20T00:38:22;4.43;;;4.00;;
44862;SDS011;30597;49.628;10.850;2023-03-20T00:40:48;3.97;;;3.60;;
44862;SDS011;30597;49.628;10.850;2023-03-20T00:43:14;4.63;;;4.23;;
44862;SDS011;30597;49.628;10.850;2023-03-20T00:45:40;4.00;;;3.70;;
44862;SDS011;30597;49.628;10.850;2023-03-20T00:48:07;4.33;;;3.93;;
44862;SDS011;30597;49.628;10.850;2023-03-20T00:50:37;4.83;;;4.43;;
44862;SDS011;30597;49.628;10.850;2023-03-20T00:53:02;4.60;;;4.20;;
44862;SDS011;30597;49.628;10.850;2023-03-20T00:55:28;3.73;;;3.43;;
44862;SDS011;30597;49.628;10.850;2023-03-20T00:57:54;4.20;;;3.80;;
44862;SDS011;30597;49.628;10.850;2023-03-20T01:03:12;3.80;;;3.50;;
44862;SDS011;30597;49.628;10.850;2023-03-20T01:05:38;3.77;;;3.47;;
44862;SDS011;30597;49.628;10.850;2023-03-20T01:08:05;4.03;;;3.63;;
44862;SDS011;30597;49.628;10.850;2023-03-20T01:10:40;4.30;;;3.90;;
44862;SDS011;30597;49.628;10.850;2023-03-20T01:13:19;3.57;;;3.27;;
44862;SDS011;30597;49.628;10.850;2023-03-20T01:15:47;3.50;;;3.20;;
44862;SDS011;30597;49.628;10.850;2023-03-20T01:18:14;4.67;;;4.27;;
44862;SDS011;30597;49.628;10.850;2023-03-20T01:20:41;4.13;;;3.73;;
44862;SDS011;30597;49.628;10.850;2023-03-20T01:23:07;3.80;;;3.50;;
44862;SDS011;30597;49.628;10.850;2023-03-20T01:25:33;3.70;;;3.40;;
44862;SDS011;30597;49.628;10.850;2023-03-20T01:27:59;3.60;;;3.30;;
44862;SDS011;30597;49.628;10.850;2023-03-20T01:30:27;3.80;;;3.50;;
44862;SDS011;30597;49.628;10.850;2023-03-20T01:32:55;4.20;;;3.80;;
44862;SDS011;30597;49.628;10.850;2023-03-20T01:35:22;3.37;;;3.07;;
44862;SDS011;30597;49.628;10.850;2023-03-20T01:37:51;4.47;;;4.17;;
44862;SDS011;30597;49.628;10.850;2023-03-20T01:43:08;3.97;;;3.60;;
44862;SDS011;30597;49.628;10.850;2023-03-20T01:45:38;4.80;;;3.90;;
44862;SDS011;30597;49.628;10.850;2023-03-20T01:48:18;4.60;;;4.20;;
44862;SDS011;30597;49.628;10.850;2023-03-20T01:50:47;3.30;;;3.00;;
44862;SDS011;30597;49.628;10.850;2023-03-20T01:53:16;3.43;;;3.13;;
44862;SDS011;30597;49.628;10.850;2023-03-20T01:55:45;3.80;;;3.50;;
44862;SDS011;30597;49.628;10.850;2023-03-20T01:58:16;3.10;;;2.80;;
44862;SDS011;30597;49.628;10.850;2023-03-20T02:00:46;3.73;;;3.20;;
44862;SDS011;30597;49.628;10.850;2023-03-20T02:03:15;3.53;;;3.23;;
44862;SDS011;30597;49.628;10.850;2023-03-20T02:05:43;3.67;;;3.37;;
44862;SDS011;30597;49.628;10.850;2023-03-20T02:10:45;3.57;;;3.27;;
44862;SDS011;30597;49.628;10.850;2023-03-20T02:13:11;3.47;;;3.17;;
44862;SDS011;30597;49.628;10.850;2023-03-20T02:18:28;3.40;;;3.03;;
44862;SDS011;30597;49.628;10.850;2023-03-20T02:26:25;3.60;;;3.30;;
44862;SDS011;30597;49.628;10.850;2023-03-20T02:31:41;4.00;;;3.60;;
44862;SDS011;30597;49.628;10.850;2023-03-20T02:43:23;3.33;;;3.03;;
44862;SDS011;30597;49.628;10.850;2023-03-20T02:57:06;3.07;;;2.77;;
44862;SDS011;30597;49.628;10.850;2023-03-20T02:59:45;3.57;;;3.27;;
44862;SDS011;30597;49.628;10.850;2023-03-20T03:02:35;3.20;;;2.90;;
44862;SDS011;30597;49.628;10.850;2023-03-20T03:05:14;3.00;;;2.80;;
44862;SDS011;30597;49.628;10.850;2023-03-20T03:07:43;3.83;;;3.53;;
44862;SDS011;30597;49.628;10.850;2023-03-20T03:10:19;3.20;;;2.90;;
44862;SDS011;30597;49.628;10.850;2023-03-20T03:12:48;2.70;;;2.50;;
44862;SDS011;30597;49.628;10.850;2023-03-20T03:15:19;3.70;;;3.40;;
44862;SDS011;30597;49.628;10.850;2023-03-20T03:17:51;3.30;;;3.03;;
44862;SDS011;30597;49.628;10.850;2023-03-20T03:20:38;3.00;;;2.80;;
44862;SDS011;30597;49.628;10.850;2023-03-20T03:23:04;3.27;;;2.97;;
44862;SDS011;30597;49.628;10.850;2023-03-20T03:25:34;3.53;;;3.23;;
44862;SDS011;30597;49.628;10.850;2023-03-20T03:30:28;3.67;;;3.30;;
44862;SDS011;30597;49.628;10.850;2023-03-20T03:35:54;3.33;;;2.80;;
44862;SDS011;30597;49.628;10.850;2023-03-20T03:38:54;3.10;;;2.87;;
44862;SDS011;30597;49.628;10.850;2023-03-20T03:41:36;3.47;;;3.17;;
44862;SDS011;30597;49.628;10.850;2023-03-20T03:44:27;3.60;;;3.30;;
44862;SDS011;30597;49.628;10.850;2023-03-20T03:47:00;3.37;;;3.07;;
44862;SDS011;30597;49.628;10.850;2023-03-20T03:49:32;2.80;;;2.60;;
44862;SDS011;30597;49.628;10.850;2023-03-20T03:52:05;2.97;;;2.77;;
44862;SDS011;30597;49.628;10.850;2023-03-20T03:54:39;2.80;;;2.57;;
44862;SDS011;30597;49.628;10.850;2023-03-20T03:57:12;2.90;;;2.60;;
44862;SDS011;30597;49.628;10.850;2023-03-20T03:59:45;3.10;;;2.80;;
44862;SDS011;30597;49.628;10.850;2023-03-20T04:02:13;3.13;;;2.90;;
44862;SDS011;30597;49.628;10.850;2023-03-20T04:04:43;3.23;;;2.93;;
44862;SDS011;30597;49.628;10.850;2023-03-20T04:07:12;2.80;;;2.60;;
44862;SDS011;30597;49.628;10.850;2023-03-20T04:09:39;3.23;;;2.93;;
44862;SDS011;30597;49.628;10.850;2023-03-20T04:12:04;3.20;;;2.90;;
44862;SDS011;30597;49.628;10.850;2023-03-20T04:14:30;3.07;;;2.87;;
44862;SDS011;30597;49.628;10.850;2023-03-20T04:16:56;3.37;;;2.90;;
44862;SDS011;30597;49.628;10.850;2023-03-20T04:19:21;3.03;;;2.77;;
44862;SDS011;30597;49.628;10.850;2023-03-20T04:21:47;3.00;;;2.70;;
44862;SDS011;30597;49.628;10.850;2023-03-20T04:24:12;3.10;;;2.90;;
44862;SDS011;30597;49.628;10.850;2023-03-20T04:26:39;3.00;;;2.80;;
44862;SDS011;30597;49.628;10.850;2023-03-20T04:29:05;3.20;;;2.90;;
44862;SDS011;30597;49.628;10.850;2023-03-20T04:31:30;3.37;;;3.07;;
44862;SDS011;30597;49.628;10.850;2023-03-20T04:33:56;3.10;;;2.90;;
44862;SDS011;30597;49.628;10.850;2023-03-20T04:36:22;3.20;;;2.90;;
44862;SDS011;30597;49.628;10.850;2023-03-20T04:38:48;2.70;;;2.50;;
44862;SDS011;30597;49.628;10.850;2023-03-20T04:41:13;3.50;;;3.20;;
44862;SDS011;30597;49.628;10.850;2023-03-20T04:43:39;3.13;;;2.83;;
44862;SDS011;30597;49.628;10.850;2023-03-20T04:46:04;2.77;;;2.57;;
44862;SDS011;30597;49.628;10.850;2023-03-20T04:48:30;3.00;;;2.70;;
44862;SDS011;30597;49.628;10.850;2023-03-20T04:50:56;2.90;;;2.70;;
44862;SDS011;30597;49.628;10.850;2023-03-20T04:53:21;2.47;;;2.27;;
44862;SDS011;30597;49.628;10.850;2023-03-20T04:55:47;3.17;;;2.80;;
44862;SDS011;30597;49.628;10.850;2023-03-20T04:58:13;2.43;;;2.23;;
44862;SDS011;30597;49.628;10.850;2023-03-20T05:00:39;2.20;;;2.10;;
44862;SDS011;30597;49.628;10.850;2023-03-20T05:03:05;2.50;;;2.30;;
44862;SDS011;30597;49.628;10.850;2023-03-20T05:05:31;2.90;;;2.60;;
44862;SDS011;30597;49.628;10.850;2023-03-20T05:07:58;3.00;;;2.80;;
44862;SDS011;30597;49.628;10.850;2023-03-20T05:10:23;3.00;;;2.80;;
44862;SDS011;30597;49.628;10.850;2023-03-20T05:12:49;3.00;;;2.80;;
44862;SDS011;30597;49.628;10.850;2023-03-20T05:15:14;2.70;;;2.50;;
44862;SDS011;30597;49.628;10.850;2023-03-20T05:17:40;2.77;;;2.57;;
44862;SDS011;30597;49.628;10.850;2023-03-20T05:20:06;2.53;;;2.33;;
44862;SDS011;30597;49.628;10.850;2023-03-20T05:22:32;2.40;;;2.20;;
44862;SDS011;30597;49.628;10.850;2023-03-20T05:24:58;2.70;;;2.50;;
44862;SDS011;30597;49.628;10.850;2023-03-20T05:27:25;2.90;;;2.53;;
44862;SDS011;30597;49.628;10.850;2023-03-20T05:29:50;2.67;;;2.47;;
44862;SDS011;30597;49.628;10.850;2023-03-20T05:32:16;2.63;;;2.43;;
44862;SDS011;30597;49.628;10.850;2023-03-20T05:34:42;2.70;;;2.50;;
44862;SDS011;30597;49.628;10.850;2023-03-20T05:37:07;2.77;;;2.57;;
44862;SDS011;30597;49.628;10.850;2023-03-20T05:39:33;2.50;;;2.30;;
44862;SDS011;30597;49.628;10.850;2023-03-20T05:41:59;2.60;;;2.40;;
44862;SDS011;30597;49.628;10.850;2023-03-20T05:44:24;2.77;;;2.57;;
44862;SDS011;30597;49.628;10.850;2023-03-20T05:46:50;2.50;;;2.30;;
44862;SDS011;30597;49.628;10.850;2023-03-20T05:49:15;2.37;;;2.17;;
44862;SDS011;30597;49.628;10.850;2023-03-20T05:51:41;2.67;;;2.47;;
44862;SDS011;30597;49.628;10.850;2023-03-20T05:54:06;2.73;;;2.53;;
44862;SDS011;30597;49.628;10.850;2023-03-20T05:56:32;2.90;;;2.70;;
44862;SDS011;30597;49.628;10.850;2023-03-20T05:58:58;2.60;;;2.40;;
44862;SDS011;30597;49.628;10.850;2023-03-20T06:01:23;2.40;;;2.20;;
44862;SDS011;30597;49.628;10.850;2023-03-20T06:03:49;2.37;;;2.17;;
44862;SDS011;30597;49.628;10.850;2023-03-20T06:06:15;2.63;;;2.40;;
44862;SDS011;30597;49.628;10.850;2023-03-20T06:08:41;2.27;;;2.07;;
44862;SDS011;30597;49.628;10.850;2023-03-20T06:11:07;2.40;;;2.20;;
44862;SDS011;30597;49.628;10.850;2023-03-20T06:13:33;2.40;;;2.20;;
44862;SDS011;30597;49.628;10.850;2023-03-20T06:15:59;2.40;;;2.20;;
44862;SDS011;30597;49.628;10.850;2023-03-20T06:18:25;2.80;;;2.60;;
44862;SDS011;30597;49.628;10.850;2023-03-20T06:20:54;2.40;;;2.20;;
44862;SDS011;30597;49.628;10.850;2023-03-20T06:23:21;2.33;;;2.13;;
44862;SDS011;30597;49.628;10.850;2023-03-20T06:25:47;2.40;;;2.20;;
44862;SDS011;30597;49.628;10.850;2023-03-20T06:28:13;2.63;;;2.43;;
44862;SDS011;30597;49.628;10.850;2023-03-20T06:30:39;2.57;;;2.33;;
44862;SDS011;30597;49.628;10.850;2023-03-20T06:33:05;2.07;;;1.97;;
44862;SDS011;30597;49.628;10.850;2023-03-20T06:35:31;1.83;;;1.73;;
44862;SDS011;30597;49.628;10.850;2023-03-20T06:37:57;2.00;;;1.77;;
44862;SDS011;30597;49.628;10.850;2023-03-20T06:40:23;2.17;;;1.97;;
44862;SDS011;30597;49.628;10.850;2023-03-20T06:42:51;2.40;;;2.20;;
44862;SDS011;30597;49.628;10.850;2023-03-20T06:45:17;2.40;;;2.20;;
44862;SDS011;30597;49.628;10.850;2023-03-20T06:47:43;2.03;;;1.90;;
44862;SDS011;30597;49.628;10.850;2023-03-20T06:50:11;4.00;;;2.47;;
44862;SDS011;30597;49.628;10.850;2023-03-20T06:52:36;2.40;;;2.20;;
44862;SDS011;30597;49.628;10.850;2023-03-20T06:55:02;2.23;;;2.13;;
44862;SDS011;30597;49.628;10.850;2023-03-20T06:57:28;2.50;;;2.30;;
44862;SDS011;30597;49.628;10.850;2023-03-20T06:59:53;2.73;;;2.53;;
44862;SDS011;30597;49.628;10.850;2023-03-20T07:02:19;2.53;;;2.33;;
44862;SDS011;30597;49.628;10.850;2023-03-20T07:04:44;2.30;;;2.10;;
44862;SDS011;30597;49.628;10.850;2023-03-20T07:07:10;2.50;;;2.30;;
44862;SDS011;30597;49.628;10.850;2023-03-20T07:09:36;2.43;;;2.23;;
44862;SDS011;30597;49.628;10.850;2023-03-20T07:12:02;2.00;;;1.90;;
44862;SDS011;30597;49.628;10.850;2023-03-20T07:14:28;2.40;;;2.20;;
44862;SDS011;30597;49.628;10.850;2023-03-20T07:16:54;2.80;;;2.60;;
44862;SDS011;30597;49.628;10.850;2023-03-20T07:19:20;2.10;;;2.00;;
44862;SDS011;30597;49.628;10.850;2023-03-20T07:21:46;2.20;;;2.00;;
44862;SDS011;30597;49.628;10.850;2023-03-20T07:24:12;2.33;;;2.13;;
44862;SDS011;30597;49.628;10.850;2023-03-20T07:26:38;2.47;;;2.27;;
44862;SDS011;30597;49.628;10.850;2023-03-20T07:29:05;2.60;;;2.40;;
44862;SDS011;30597;49.628;10.850;2023-03-20T07:31:30;2.00;;;1.90;;
44862;SDS011;30597;49.628;10.850;2023-03-20T07:33:56;2.40;;;2.10;;
44862;SDS011;30597;49.628;10.850;2023-03-20T07:36:22;1.80;;;1.70;;
44862;SDS011;30597;49.628;10.850;2023-03-20T07:38:48;1.93;;;1.83;;
44862;SDS011;30597;49.628;10.850;2023-03-20T07:41:14;2.43;;;2.23;;
44862;SDS011;30597;49.628;10.850;2023-03-20T07:43:39;2.30;;;2.10;;
44862;SDS011;30597;49.628;10.850;2023-03-20T07:46:05;2.90;;;2.53;;
44862;SDS011;30597;49.628;10.850;2023-03-20T07:48:32;3.07;;;2.27;;
44862;SDS011;30597;49.628;10.850;2023-03-20T07:50:58;2.70;;;2.50;;
44862;SDS011;30597;49.628;10.850;2023-03-20T07:53:23;2.13;;;2.03;;
44862;SDS011;30597;49.628;10.850;2023-03-20T07:55:49;2.27;;;2.07;;
44862;SDS011;30597;49.628;10.850;2023-03-20T07:58:15;1.97;;;1.77;;
44862;SDS011;30597;49.628;10.850;2023-03-20T08:00:41;1.80;;;1.70;;
44862;SDS011;30597;49.628;10.850;2023-03-20T08:03:07;2.17;;;1.97;;
44862;SDS011;30597;49.628;10.850;2023-03-20T08:05:33;2.00;;;1.87;;
44862;SDS011;30597;49.628;10.850;2023-03-20T08:07:58;2.20;;;2.00;;
44862;SDS011;30597;49.628;10.850;2023-03-20T08:10:24;2.10;;;1.90;;
44862;SDS011;30597;49.628;10.850;2023-03-20T08:12:50;2.00;;;1.80;;
44862;SDS011;30597;49.628;10.850;2023-03-20T08:15:16;2.20;;;2.10;;
44862;SDS011;30597;49.628;10.850;2023-03-20T08:17:42;2.40;;;2.20;;
44862;SDS011;30597;49.628;10.850;2023-03-20T08:20:09;1.83;;;1.73;;
44862;SDS011;30597;49.628;10.850;2023-03-20T08:22:35;2.20;;;2.03;;
44862;SDS011;30597;49.628;10.850;2023-03-20T08:25:00;2.33;;;2.20;;
44862;SDS011;30597;49.628;10.850;2023-03-20T08:27:26;2.33;;;2.13;;
44862;SDS011;30597;49.628;10.850;2023-03-20T08:29:52;2.40;;;2.20;;
44862;SDS011;30597;49.628;10.850;2023-03-20T08:32:17;2.13;;;1.93;;
44862;SDS011;30597;49.628;10.850;2023-03-20T08:34:43;2.20;;;2.00;;
44862;SDS011;30597;49.628;10.850;2023-03-20T08:37:08;2.30;;;1.70;;
44862;SDS011;30597;49.628;10.850;2023-03-20T08:39:36;2.03;;;1.83;;
44862;SDS011;30597;49.628;10.850;2023-03-20T08:42:03;2.13;;;2.00;;
44862;SDS011;30597;49.628;10.850;2023-03-20T08:44:30;2.10;;;1.90;;
44862;SDS011;30597;49.628;10.850;2023-03-20T08:46:55;2.70;;;2.50;;
44862;SDS011;30597;49.628;10.850;2023-03-20T08:49:21;1.90;;;1.77;;
44862;SDS011;30597;49.628;10.850;2023-03-20T08:51:46;2.10;;;1.90;;
44862;SDS011;30597;49.628;10.850;2023-03-20T08:54:12;2.27;;;2.07;;
44862;SDS011;30597;49.628;10.850;2023-03-20T08:56:39;1.83;;;1.73;;
44862;SDS011;30597;49.628;10.850;2023-03-20T08:59:05;2.33;;;2.13;;
44862;SDS011;30597;49.628;10.850;2023-03-20T09:01:30;1.83;;;1.73;;
44862;SDS011;30597;49.628;10.850;2023-03-20T09:03:56;2.37;;;2.03;;
44862;SDS011;30597;49.628;10.850;2023-03-20T09:06:22;2.47;;;2.00;;
44862;SDS011;30597;49.628;10.850;2023-03-20T09:08:47;2.50;;;2.10;;
44862;SDS011;30597;49.628;10.850;2023-03-20T09:11:13;2.20;;;2.00;;
44862;SDS011;30597;49.628;10.850;2023-03-20T09:13:39;2.33;;;2.13;;
44862;SDS011;30597;49.628;10.850;2023-03-20T09:16:04;2.07;;;1.87;;
44862;SDS011;30597;49.628;10.850;2023-03-20T09:18:30;2.80;;;1.80;;
44862;SDS011;30597;49.628;10.850;2023-03-20T09:20:56;2.50;;;2.30;;
44862;SDS011;30597;49.628;10.850;2023-03-20T09:23:22;2.20;;;1.80;;
44862;SDS011;30597;49.628;10.850;2023-03-20T09:25:47;2.60;;;2.00;;
44862;SDS011;30597;49.628;10.850;2023-03-20T09:28:13;2.10;;;1.90;;
44862;SDS011;30597;49.628;10.850;2023-03-20T09:30:39;2.37;;;1.80;;
44862;SDS011;30597;49.628;10.850;2023-03-20T09:33:08;2.40;;;2.00;;
44862;SDS011;30597;49.628;10.850;2023-03-20T09:35:34;2.57;;;2.37;;
44862;SDS011;30597;49.628;10.850;2023-03-20T09:38:00;2.40;;;1.90;;
44862;SDS011;30597;49.628;10.850;2023-03-20T09:40:26;1.83;;;1.63;;
44862;SDS011;30597;49.628;10.850;2023-03-20T09:43:05;2.70;;;2.20;;
44862;SDS011;30597;49.628;10.850;2023-03-20T09:51:35;1.60;;;1.50;;
44862;SDS011;30597;49.628;10.850;2023-03-20T09:54:27;1.90;;;1.80;;
44862;SDS011;30597;49.628;10.850;2023-03-20T09:57:01;1.83;;;1.63;;
44862;SDS011;30597;49.628;10.850;2023-03-20T09:59:27;1.50;;;1.40;;
44862;SDS011;30597;49.628;10.850;2023-03-20T10:01:58;1.90;;;1.70;;
44862;SDS011;30597;49.628;10.850;2023-03-20T10:04:36;1.90;;;1.80;;
44862;SDS011;30597;49.628;10.850;2023-03-20T10:07:03;2.13;;;1.93;;
44862;SDS011;30597;49.628;10.850;2023-03-20T10:09:29;2.23;;;1.70;;
44862;SDS011;30597;49.628;10.850;2023-03-20T10:15:18;1.60;;;1.50;;
44862;SDS011;30597;49.628;10.850;2023-03-20T10:18:01;1.90;;;1.70;;
44862;SDS011;30597;49.628;10.850;2023-03-20T10:20:47;2.20;;;2.00;;
44862;SDS011;30597;49.628;10.850;2023-03-20T10:26:11;1.60;;;1.50;;
44862;SDS011;30597;49.628;10.850;2023-03-20T10:28:43;1.60;;;1.50;;
44862;SDS011;30597;49.628;10.850;2023-03-20T10:39:46;2.20;;;2.00;;
44862;SDS011;30597;49.628;10.850;2023-03-20T10:42:33;1.60;;;1.50;;
44862;SDS011;30597;49.628;10.850;2023-03-20T10:45:05;2.70;;;1.67;;
44862;SDS011;30597;49.628;10.850;2023-03-20T10:47:42;2.40;;;1.90;;
44862;SDS011;30597;49.628;10.850;2023-03-20T10:50:16;1.80;;;1.60;;
44862;SDS011;30597;49.628;10.850;2023-03-20T10:52:43;2.20;;;1.70;;
44862;SDS011;30597;49.628;10.850;2023-03-20T10:55:12;1.60;;;1.50;;
44862;SDS011;30597;49.628;10.850;2023-03-20T10:57:43;1.80;;;1.70;;
44862;SDS011;30597;49.628;10.850;2023-03-20T11:00:22;2.00;;;1.80;;
44862;SDS011;30597;49.628;10.850;2023-03-20T11:02:49;1.70;;;1.60;;
44862;SDS011;30597;49.628;10.850;2023-03-20T11:05:20;2.17;;;1.83;;
44862;SDS011;30597;49.628;10.850;2023-03-20T11:08:07;1.70;;;1.60;;
44862;SDS011;30597;49.628;10.850;2023-03-20T11:10:38;1.97;;;1.60;;
44862;SDS011;30597;49.628;10.850;2023-03-20T11:13:13;1.57;;;1.47;;
44862;SDS011;30597;49.628;10.850;2023-03-20T11:15:40;1.80;;;1.70;;
44862;SDS011;30597;49.628;10.850;2023-03-20T11:18:06;2.73;;;1.90;;
44862;SDS011;30597;49.628;10.850;2023-03-20T11:23:15;2.07;;;1.87;;
44862;SDS011;30597;49.628;10.850;2023-03-20T11:25:48;1.80;;;1.70;;
44862;SDS011;30597;49.628;10.850;2023-03-20T11:30:56;2.00;;;1.80;;
44862;SDS011;30597;49.628;10.850;2023-03-20T11:33:30;2.30;;;2.10;;
44862;SDS011;30597;49.628;10.850;2023-03-20T11:36:09;2.00;;;1.80;;
44862;SDS011;30597;49.628;10.850;2023-03-20T11:38:45;2.10;;;1.83;;
44862;SDS011;30597;49.628;10.850;2023-03-20T11:41:22;2.40;;;1.97;;
44862;SDS011;30597;49.628;10.850;2023-03-20T11:43:52;2.17;;;1.97;;
44862;SDS011;30597;49.628;10.850;2023-03-20T11:46:18;2.83;;;2.00;;
44862;SDS011;30597;49.628;10.850;2023-03-20T11:49:02;2.20;;;2.00;;
44862;SDS011;30597;49.628;10.850;2023-03-20T11:51:42;3.10;;;1.97;;
44862;SDS011;30597;49.628;10.850;2023-03-20T11:54:12;2.13;;;1.93;;
44862;SDS011;30597;49.628;10.850;2023-03-20T11:56:50;2.30;;;1.77;;
44862;SDS011;30597;49.628;10.850;2023-03-20T11:59:17;3.03;;;2.03;;
44862;SDS011;30597;49.628;10.850;2023-03-20T12:01:43;3.53;;;2.00;;
44862;SDS011;30597;49.628;10.850;2023-03-20T12:04:19;2.13;;;1.57;;
44862;SDS011;30597;49.628;10.850;2023-03-20T12:07:02;2.40;;;2.20;;
44862;SDS011;30597;49.628;10.850;2023-03-20T12:14:52;2.80;;;2.27;;
44862;SDS011;30597;49.628;10.850;2023-03-20T12:20:01;2.30;;;2.10;;
44862;SDS011;30597;49.628;10.850;2023-03-20T12:22:48;2.43;;;2.23;;
44862;SDS011;30597;49.628;10.850;2023-03-20T12:27:50;2.40;;;2.20;;
44862;SDS011;30597;49.628;10.850;2023-03-20T12:35:52;2.43;;;1.87;;
44862;SDS011;30597;49.628;10.850;2023-03-20T12:38:22;2.10;;;1.90;;
44862;SDS011;30597;49.628;10.850;2023-03-20T12:40:54;1.97;;;1.87;;
44862;SDS011;30597;49.628;10.850;2023-03-20T12:43:31;2.30;;;2.10;;
44862;SDS011;30597;49.628;10.850;2023-03-20T12:46:24;2.77;;;1.90;;
44862;SDS011;30597;49.628;10.850;2023-03-20T12:48:54;3.03;;;2.50;;
44862;SDS011;30597;49.628;10.850;2023-03-20T12:51:47;2.63;;;2.20;;
44862;SDS011;30597;49.628;10.850;2023-03-20T13:02:15;2.17;;;1.97;;
44862;SDS011;30597;49.628;10.850;2023-03-20T13:12:31;2.10;;;1.90;;
44862;SDS011;30597;49.628;10.850;2023-03-20T13:21:05;3.03;;;2.73;;
44862;SDS011;30597;49.628;10.850;2023-03-20T13:23:41;2.10;;;1.90;;
44862;SDS011;30597;49.628;10.850;2023-03-20T13:32:20;2.00;;;1.90;;
44862;SDS011;30597;49.628;10.850;2023-03-20T13:37:25;2.80;;;2.47;;
44862;SDS011;30597;49.628;10.850;2023-03-20T13:45:37;2.57;;;2.37;;
44862;SDS011;30597;49.628;10.850;2023-03-20T13:48:50;2.13;;;1.93;;
44862;SDS011;30597;49.628;10.850;2023-03-20T13:53:53;2.27;;;2.07;;
44862;SDS011;30597;49.628;10.850;2023-03-20T14:04:34;2.50;;;1.97;;
44862;SDS011;30597;49.628;10.850;2023-03-20T14:07:01;2.27;;;2.07;;
44862;SDS011;30597;49.628;10.850;2023-03-20T14:09:47;2.40;;;2.17;;
44862;SDS011;30597;49.628;10.850;2023-03-20T14:12:12;2.10;;;1.90;;
44862;SDS011;30597;49.628;10.850;2023-03-20T14:14:56;3.33;;;2.23;;
44862;SDS011;30597;49.628;10.850;2023-03-20T14:19:56;2.30;;;2.10;;
44862;SDS011;30597;49.628;10.850;2023-03-20T14:22:33;2.30;;;2.17;;
44862;SDS011;30597;49.628;10.850;2023-03-20T14:25:07;2.13;;;1.80;;
44862;SDS011;30597;49.628;10.850;2023-03-20T14:27:52;2.60;;;2.40;;
44862;SDS011;30597;49.628;10.850;2023-03-20T14:33:00;2.30;;;2.10;;
44862;SDS011;30597;49.628;10.850;2023-03-20T14:36:09;2.43;;;2.23;;
44862;SDS011;30597;49.628;10.850;2023-03-20T14:41:32;2.10;;;1.90;;
44862;SDS011;30597;49.628;10.850;2023-03-20T14:44:23;2.50;;;2.20;;
44862;SDS011;30597;49.628;10.850;2023-03-20T14:47:21;2.57;;;1.90;;
44862;SDS011;30597;49.628;10.850;2023-03-20T14:50:17;2.70;;;2.43;;
44862;SDS011;30597;49.628;10.850;2023-03-20T14:55:27;1.93;;;1.60;;
44862;SDS011;30597;49.628;10.850;2023-03-20T14:58:01;2.50;;;2.30;;
44862;SDS011;30597;49.628;10.850;2023-03-20T15:00:32;2.30;;;2.10;;
44862;SDS011;30597;49.628;10.850;2023-03-20T15:05:32;1.97;;;1.87;;
44862;SDS011;30597;49.628;10.850;2023-03-20T15:08:07;2.50;;;2.23;;
44862;SDS011;30597;49.628;10.850;2023-03-20T15:10:34;2.50;;;2.23;;
44862;SDS011;30597;49.628;10.850;2023-03-20T15:13:03;2.10;;;1.90;;
44862;SDS011;30597;49.628;10.850;2023-03-20T15:15:31;1.97;;;1.80;;
44862;SDS011;30597;49.628;10.850;2023-03-20T15:18:11;2.20;;;2.00;;
44862;SDS011;30597;49.628;10.850;2023-03-20T15:20:37;2.27;;;2.07;;
44862;SDS011;30597;49.628;10.850;2023-03-20T15:23:03;2.53;;;2.17;;
44862;SDS011;30597;49.628;10.850;2023-03-20T15:25:46;1.80;;;1.70;;
44862;SDS011;30597;49.628;10.850;2023-03-20T15:28:14;1.87;;;1.73;;
44862;SDS011;30597;49.628;10.850;2023-03-20T15:30:51;2.00;;;1.80;;
44862;SDS011;30597;49.628;10.850;2023-03-20T15:33:26;2.20;;;2.00;;
44862;SDS011;30597;49.628;10.850;2023-03-20T15:35:56;2.30;;;2.10;;
44862;SDS011;30597;49.628;10.850;2023-03-20T15:38:22;2.20;;;2.00;;
44862;SDS011;30597;49.628;10.850;2023-03-20T15:40:53;2.10;;;1.90;;
44862;SDS011;30597;49.628;10.850;2023-03-20T15:43:23;2.27;;;1.80;;
44862;SDS011;30597;49.628;10.850;2023-03-20T15:45:50;2.13;;;1.93;;
44862;SDS011;30597;49.628;10.850;2023-03-20T15:48:21;2.30;;;2.10;;
44862;SDS011;30597;49.628;10.850;2023-03-20T15:50:48;1.67;;;1.57;;
44862;SDS011;30597;49.628;10.850;2023-03-20T15:53:26;2.40;;;2.00;;
44862;SDS011;30597;49.628;10.850;2023-03-20T15:56:00;2.23;;;2.03;;
44862;SDS011;30597;49.628;10.850;2023-03-20T15:58:35;2.43;;;2.23;;
44862;SDS011;30597;49.628;10.850;2023-03-20T16:01:01;2.10;;;1.90;;
44862;SDS011;30597;49.628;10.850;2023-03-20T16:03:29;2.17;;;2.00;;
44862;SDS011;30597;49.628;10.850;2023-03-20T16:05:57;2.20;;;2.00;;
44862;SDS011;30597;49.628;10.850;2023-03-20T16:11:04;2.40;;;2.00;;
44862;SDS011;30597;49.628;10.850;2023-03-20T16:13:37;2.70;;;2.50;;
44862;SDS011;30597;49.628;10.850;2023-03-20T16:16:11;3.10;;;2.17;;
44862;SDS011;30597;49.628;10.850;2023-03-20T16:18:39;2.20;;;2.00;;
44862;SDS011;30597;49.628;10.850;2023-03-20T16:21:07;2.27;;;2.10;;
44862;SDS011;30597;49.628;10.850;2023-03-20T16:23:41;2.40;;;2.20;;
44862;SDS011;30597;49.628;10.850;2023-03-20T16:26:11;2.40;;;2.20;;
44862;SDS011;30597;49.628;10.850;2023-03-20T16:28:43;2.63;;;2.43;;
44862;SDS011;30597;49.628;10.850;2023-03-20T16:31:15;3.03;;;2.73;;
44862;SDS011;30597;49.628;10.850;2023-03-20T16:33:43;2.40;;;2.07;;
44862;SDS011;30597;49.628;10.850;2023-03-20T16:36:27;3.80;;;2.73;;
44862;SDS011;30597;49.628;10.850;2023-03-20T16:38:56;2.30;;;2.10;;
44862;SDS011;30597;49.628;10.850;2023-03-20T16:41:32;2.70;;;2.50;;
44862;SDS011;30597;49.628;10.850;2023-03-20T16:44:04;3.20;;;2.90;;
44862;SDS011;30597;49.628;10.850;2023-03-20T16:46:32;3.03;;;2.73;;
44862;SDS011;30597;49.628;10.850;2023-03-20T16:49:13;3.13;;;2.83;;
44862;SDS011;30597;49.628;10.850;2023-03-20T16:51:59;2.83;;;2.60;;
44862;SDS011;30597;49.628;10.850;2023-03-20T16:54:27;3.27;;;2.90;;
44862;SDS011;30597;49.628;10.850;2023-03-20T16:56:55;3.07;;;2.77;;
44862;SDS011;30597;49.628;10.850;2023-03-20T16:59:22;2.93;;;2.73;;
44862;SDS011;30597;49.628;10.850;2023-03-20T17:01:50;4.13;;;3.73;;
44862;SDS011;30597;49.628;10.850;2023-03-20T17:04:22;2.97;;;2.77;;
44862;SDS011;30597;49.628;10.850;2023-03-20T17:06:53;3.30;;;3.00;;
44862;SDS011;30597;49.628;10.850;2023-03-20T17:09:26;4.03;;;3.60;;
44862;SDS011;30597;49.628;10.850;2023-03-20T17:12:05;3.30;;;3.00;;
44862;SDS011;30597;49.628;10.850;2023-03-20T17:14:41;3.70;;;3.20;;
44862;SDS011;30597;49.628;10.850;2023-03-20T17:17:13;4.50;;;3.47;;
44862;SDS011;30597;49.628;10.850;2023-03-20T17:19:40;3.20;;;2.90;;